sensor_id;sensor_type;location;lat;lon;timestamp;P1;durP1;ratioP1;P2;durP2;ratioP2
61840;SDS011;47773;53.174;6.614;2023-06-22T00:01:54;41.15;;;24.70;;
61840;SDS011;47773;53.174;6.614;2023-06-22T00:04:20;36.35;;;24.38;;
61840;SDS011;47773;53.174;6.614;2023-06-22T00:06:46;37.25;;;24.08;;
61840;SDS011;47773;53.174;6.614;2023-06-22T00:09:11;36.58;;;23.83;;
61840;SDS011;47773;53.174;6.614;2023-06-22T00:11:37;39.90;;;24.50;;
61840;SDS011;47773;53.174;6.614;2023-06-22T00:14:03;38.33;;;23.98;;
61840;SDS011;47773;53.174;6.614;2023-06-22T00:16:30;39.70;;;23.55;;
61840;SDS011;47773;53.174;6.614;2023-06-22T00:18:56;35.95;;;22.60;;
61840;SDS011;47773;53.174;6.614;2023-06-22T00:21:25;41.35;;;23.30;;
61840;SDS011;47773;53.174;6.614;2023-06-22T00:23:53;38.92;;;24.85;;
61840;SDS011;47773;53.174;6.614;2023-06-22T00:26:19;40.60;;;24.58;;
61840;SDS011;47773;53.174;6.614;2023-06-22T00:28:45;39.50;;;24.77;;
61840;SDS011;47773;53.174;6.614;2023-06-22T00:31:12;37.42;;;23.42;;
61840;SDS011;47773;53.174;6.614;2023-06-22T00:33:38;40.15;;;24.38;;
61840;SDS011;47773;53.174;6.614;2023-06-22T00:36:04;36.00;;;23.67;;
61840;SDS011;47773;53.174;6.614;2023-06-22T00:38:29;42.42;;;24.30;;
61840;SDS011;47773;53.174;6.614;2023-06-22T00:40:55;39.08;;;24.83;;
61840;SDS011;47773;53.174;6.614;2023-06-22T00:43:21;41.70;;;24.65;;
61840;SDS011;47773;53.174;6.614;2023-06-22T00:45:46;38.90;;;24.23;;
61840;SDS011;47773;53.174;6.614;2023-06-22T00:48:12;38.63;;;24.05;;
61840;SDS011;47773;53.174;6.614;2023-06-22T00:50:39;37.47;;;23.52;;
61840;SDS011;47773;53.174;6.614;2023-06-22T00:53:06;46.78;;;24.02;;
61840;SDS011;47773;53.174;6.614;2023-06-22T00:55:42;42.25;;;24.42;;
61840;SDS011;47773;53.174;6.614;2023-06-22T00:58:10;39.38;;;23.80;;
61840;SDS011;47773;53.174;6.614;2023-06-22T01:00:39;37.20;;;23.88;;
61840;SDS011;47773;53.174;6.614;2023-06-22T01:03:06;35.17;;;22.58;;
61840;SDS011;47773;53.174;6.614;2023-06-22T01:05:35;41.67;;;24.10;;
61840;SDS011;47773;53.174;6.614;2023-06-22T01:11:07;39.35;;;25.25;;
61840;SDS011;47773;53.174;6.614;2023-06-22T01:13:50;41.53;;;24.50;;
61840;SDS011;47773;53.174;6.614;2023-06-22T01:16:29;46.35;;;25.17;;
61840;SDS011;47773;53.174;6.614;2023-06-22T01:18:57;40.03;;;24.95;;
61840;SDS011;47773;53.174;6.614;2023-06-22T01:21:34;39.72;;;25.17;;
61840;SDS011;47773;53.174;6.614;2023-06-22T01:29:48;44.58;;;26.55;;
61840;SDS011;47773;53.174;6.614;2023-06-22T01:32:20;42.75;;;25.23;;
61840;SDS011;47773;53.174;6.614;2023-06-22T01:34:46;40.13;;;24.48;;
61840;SDS011;47773;53.174;6.614;2023-06-22T01:37:13;45.63;;;26.17;;
61840;SDS011;47773;53.174;6.614;2023-06-22T01:39:40;39.20;;;24.65;;
61840;SDS011;47773;53.174;6.614;2023-06-22T01:42:06;42.58;;;25.20;;
61840;SDS011;47773;53.174;6.614;2023-06-22T01:44:32;38.75;;;24.65;;
61840;SDS011;47773;53.174;6.614;2023-06-22T01:46:58;36.40;;;23.63;;
61840;SDS011;47773;53.174;6.614;2023-06-22T01:49:24;37.65;;;25.13;;
61840;SDS011;47773;53.174;6.614;2023-06-22T01:51:51;36.00;;;24.52;;
61840;SDS011;47773;53.174;6.614;2023-06-22T01:54:16;38.03;;;24.45;;
61840;SDS011;47773;53.174;6.614;2023-06-22T01:56:42;32.28;;;22.95;;
61840;SDS011;47773;53.174;6.614;2023-06-22T01:59:15;37.33;;;24.52;;
61840;SDS011;47773;53.174;6.614;2023-06-22T02:01:58;32.80;;;24.17;;
61840;SDS011;47773;53.174;6.614;2023-06-22T02:07:15;32.58;;;21.98;;
61840;SDS011;47773;53.174;6.614;2023-06-22T02:09:44;32.15;;;21.15;;
61840;SDS011;47773;53.174;6.614;2023-06-22T02:12:11;29.85;;;21.30;;
61840;SDS011;47773;53.174;6.614;2023-06-22T02:14:38;38.30;;;25.27;;
61840;SDS011;47773;53.174;6.614;2023-06-22T02:17:05;45.00;;;26.50;;
61840;SDS011;47773;53.174;6.614;2023-06-22T02:19:35;45.75;;;26.83;;
61840;SDS011;47773;53.174;6.614;2023-06-22T02:22:03;45.67;;;28.63;;
61840;SDS011;47773;53.174;6.614;2023-06-22T02:24:29;42.30;;;26.95;;
61840;SDS011;47773;53.174;6.614;2023-06-22T02:27:00;38.22;;;25.88;;
61840;SDS011;47773;53.174;6.614;2023-06-22T02:29:26;39.08;;;26.02;;
61840;SDS011;47773;53.174;6.614;2023-06-22T02:31:53;37.15;;;26.98;;
61840;SDS011;47773;53.174;6.614;2023-06-22T02:34:19;39.40;;;26.92;;
61840;SDS011;47773;53.174;6.614;2023-06-22T02:36:45;37.20;;;26.00;;
61840;SDS011;47773;53.174;6.614;2023-06-22T02:39:22;42.13;;;28.48;;
61840;SDS011;47773;53.174;6.614;2023-06-22T02:41:49;42.55;;;28.60;;
61840;SDS011;47773;53.174;6.614;2023-06-22T02:44:16;40.53;;;27.50;;
61840;SDS011;47773;53.174;6.614;2023-06-22T02:46:42;41.75;;;28.85;;
61840;SDS011;47773;53.174;6.614;2023-06-22T02:49:09;45.60;;;30.05;;
61840;SDS011;47773;53.174;6.614;2023-06-22T02:51:35;46.78;;;32.50;;
61840;SDS011;47773;53.174;6.614;2023-06-22T02:54:04;47.92;;;31.95;;
61840;SDS011;47773;53.174;6.614;2023-06-22T02:56:33;49.67;;;31.52;;
61840;SDS011;47773;53.174;6.614;2023-06-22T02:58:59;41.08;;;28.77;;
61840;SDS011;47773;53.174;6.614;2023-06-22T03:01:29;45.03;;;29.77;;
61840;SDS011;47773;53.174;6.614;2023-06-22T03:03:58;48.92;;;30.95;;
61840;SDS011;47773;53.174;6.614;2023-06-22T03:06:24;47.35;;;33.38;;
61840;SDS011;47773;53.174;6.614;2023-06-22T03:08:58;49.17;;;33.17;;
61840;SDS011;47773;53.174;6.614;2023-06-22T03:11:25;46.57;;;32.20;;
61840;SDS011;47773;53.174;6.614;2023-06-22T03:13:50;51.75;;;35.35;;
61840;SDS011;47773;53.174;6.614;2023-06-22T03:16:17;50.25;;;33.65;;
61840;SDS011;47773;53.174;6.614;2023-06-22T03:18:43;48.58;;;33.50;;
61840;SDS011;47773;53.174;6.614;2023-06-22T03:21:09;49.42;;;33.63;;
61840;SDS011;47773;53.174;6.614;2023-06-22T03:23:34;55.33;;;34.72;;
61840;SDS011;47773;53.174;6.614;2023-06-22T03:26:01;51.22;;;32.75;;
61840;SDS011;47773;53.174;6.614;2023-06-22T03:28:26;51.58;;;31.88;;
61840;SDS011;47773;53.174;6.614;2023-06-22T03:30:52;50.38;;;32.17;;
61840;SDS011;47773;53.174;6.614;2023-06-22T03:33:18;47.15;;;31.52;;
61840;SDS011;47773;53.174;6.614;2023-06-22T03:35:43;48.92;;;31.75;;
61840;SDS011;47773;53.174;6.614;2023-06-22T03:38:09;46.22;;;31.70;;
61840;SDS011;47773;53.174;6.614;2023-06-22T03:40:35;44.00;;;31.23;;
61840;SDS011;47773;53.174;6.614;2023-06-22T03:43:00;49.75;;;31.60;;
61840;SDS011;47773;53.174;6.614;2023-06-22T03:45:26;47.45;;;29.92;;
61840;SDS011;47773;53.174;6.614;2023-06-22T03:47:51;45.38;;;30.17;;
61840;SDS011;47773;53.174;6.614;2023-06-22T03:50:18;48.65;;;33.63;;
61840;SDS011;47773;53.174;6.614;2023-06-22T03:52:45;50.88;;;33.42;;
61840;SDS011;47773;53.174;6.614;2023-06-22T03:55:11;54.58;;;34.97;;
61840;SDS011;47773;53.174;6.614;2023-06-22T03:57:37;51.90;;;33.65;;
61840;SDS011;47773;53.174;6.614;2023-06-22T04:00:03;44.95;;;31.52;;
61840;SDS011;47773;53.174;6.614;2023-06-22T04:02:33;46.72;;;31.17;;
61840;SDS011;47773;53.174;6.614;2023-06-22T04:04:58;45.38;;;30.00;;
61840;SDS011;47773;53.174;6.614;2023-06-22T04:07:24;44.97;;;30.35;;
61840;SDS011;47773;53.174;6.614;2023-06-22T04:09:50;47.67;;;31.02;;
61840;SDS011;47773;53.174;6.614;2023-06-22T04:12:15;47.63;;;31.08;;
61840;SDS011;47773;53.174;6.614;2023-06-22T04:14:41;50.22;;;32.05;;
61840;SDS011;47773;53.174;6.614;2023-06-22T04:17:07;48.90;;;31.55;;
61840;SDS011;47773;53.174;6.614;2023-06-22T04:19:32;50.20;;;32.38;;
61840;SDS011;47773;53.174;6.614;2023-06-22T04:21:58;54.20;;;34.30;;
61840;SDS011;47773;53.174;6.614;2023-06-22T04:24:24;50.97;;;32.05;;
61840;SDS011;47773;53.174;6.614;2023-06-22T04:26:49;54.50;;;32.88;;
61840;SDS011;47773;53.174;6.614;2023-06-22T04:29:18;56.17;;;34.20;;
61840;SDS011;47773;53.174;6.614;2023-06-22T04:31:44;56.20;;;32.95;;
61840;SDS011;47773;53.174;6.614;2023-06-22T04:34:10;53.88;;;33.50;;
61840;SDS011;47773;53.174;6.614;2023-06-22T04:36:36;55.38;;;33.70;;
61840;SDS011;47773;53.174;6.614;2023-06-22T04:39:04;53.70;;;33.75;;
61840;SDS011;47773;53.174;6.614;2023-06-22T04:41:30;59.33;;;34.10;;
61840;SDS011;47773;53.174;6.614;2023-06-22T04:44:07;56.90;;;35.55;;
61840;SDS011;47773;53.174;6.614;2023-06-22T04:46:34;59.45;;;36.15;;
61840;SDS011;47773;53.174;6.614;2023-06-22T04:49:09;57.03;;;37.88;;
61840;SDS011;47773;53.174;6.614;2023-06-22T04:51:41;60.83;;;38.38;;
61840;SDS011;47773;53.174;6.614;2023-06-22T04:54:08;57.20;;;37.78;;
61840;SDS011;47773;53.174;6.614;2023-06-22T04:56:34;56.08;;;36.78;;
61840;SDS011;47773;53.174;6.614;2023-06-22T04:59:00;65.45;;;38.92;;
61840;SDS011;47773;53.174;6.614;2023-06-22T05:01:28;63.90;;;39.55;;
61840;SDS011;47773;53.174;6.614;2023-06-22T05:03:55;63.60;;;38.42;;
61840;SDS011;47773;53.174;6.614;2023-06-22T05:06:23;72.68;;;42.90;;
61840;SDS011;47773;53.174;6.614;2023-06-22T05:08:55;70.50;;;42.38;;
61840;SDS011;47773;53.174;6.614;2023-06-22T05:11:27;71.20;;;42.70;;
61840;SDS011;47773;53.174;6.614;2023-06-22T05:13:53;64.80;;;40.92;;
61840;SDS011;47773;53.174;6.614;2023-06-22T05:16:20;71.88;;;43.50;;
61840;SDS011;47773;53.174;6.614;2023-06-22T05:18:52;71.90;;;44.85;;
61840;SDS011;47773;53.174;6.614;2023-06-22T05:21:26;76.50;;;44.40;;
61840;SDS011;47773;53.174;6.614;2023-06-22T05:23:52;69.10;;;43.53;;
61840;SDS011;47773;53.174;6.614;2023-06-22T05:26:19;74.50;;;44.63;;
61840;SDS011;47773;53.174;6.614;2023-06-22T05:28:45;81.03;;;46.75;;
61840;SDS011;47773;53.174;6.614;2023-06-22T05:31:15;81.47;;;45.30;;
61840;SDS011;47773;53.174;6.614;2023-06-22T05:33:41;78.78;;;46.63;;
61840;SDS011;47773;53.174;6.614;2023-06-22T05:36:08;75.90;;;46.25;;
61840;SDS011;47773;53.174;6.614;2023-06-22T05:38:35;77.60;;;45.42;;
61840;SDS011;47773;53.174;6.614;2023-06-22T05:41:01;71.50;;;43.10;;
61840;SDS011;47773;53.174;6.614;2023-06-22T05:43:27;76.47;;;44.58;;
61840;SDS011;47773;53.174;6.614;2023-06-22T05:45:52;76.45;;;45.83;;
61840;SDS011;47773;53.174;6.614;2023-06-22T05:48:18;72.57;;;43.38;;
61840;SDS011;47773;53.174;6.614;2023-06-22T05:50:43;71.60;;;42.97;;
61840;SDS011;47773;53.174;6.614;2023-06-22T05:53:09;71.68;;;40.35;;
61840;SDS011;47773;53.174;6.614;2023-06-22T05:55:35;60.95;;;37.40;;
61840;SDS011;47773;53.174;6.614;2023-06-22T05:58:01;58.97;;;37.78;;
61840;SDS011;47773;53.174;6.614;2023-06-22T06:00:28;54.80;;;34.70;;
61840;SDS011;47773;53.174;6.614;2023-06-22T06:02:54;57.53;;;35.30;;
61840;SDS011;47773;53.174;6.614;2023-06-22T06:05:20;56.63;;;33.72;;
61840;SDS011;47773;53.174;6.614;2023-06-22T06:07:45;51.88;;;31.58;;
61840;SDS011;47773;53.174;6.614;2023-06-22T06:10:11;49.72;;;31.55;;
61840;SDS011;47773;53.174;6.614;2023-06-22T06:12:37;49.95;;;30.63;;
61840;SDS011;47773;53.174;6.614;2023-06-22T06:15:03;41.60;;;25.85;;
61840;SDS011;47773;53.174;6.614;2023-06-22T06:17:30;44.10;;;26.35;;
61840;SDS011;47773;53.174;6.614;2023-06-22T06:19:55;46.75;;;27.15;;
61840;SDS011;47773;53.174;6.614;2023-06-22T06:22:21;44.90;;;26.45;;
61840;SDS011;47773;53.174;6.614;2023-06-22T06:24:48;41.75;;;25.45;;
61840;SDS011;47773;53.174;6.614;2023-06-22T06:27:14;40.88;;;24.02;;
61840;SDS011;47773;53.174;6.614;2023-06-22T06:29:43;39.17;;;23.50;;
61840;SDS011;47773;53.174;6.614;2023-06-22T06:32:10;43.92;;;24.27;;
61840;SDS011;47773;53.174;6.614;2023-06-22T06:34:37;38.70;;;23.70;;
61840;SDS011;47773;53.174;6.614;2023-06-22T06:37:03;33.40;;;21.23;;
61840;SDS011;47773;53.174;6.614;2023-06-22T06:39:28;36.72;;;22.05;;
61840;SDS011;47773;53.174;6.614;2023-06-22T06:41:54;36.25;;;21.60;;
61840;SDS011;47773;53.174;6.614;2023-06-22T06:44:20;32.28;;;21.13;;
61840;SDS011;47773;53.174;6.614;2023-06-22T06:46:46;31.65;;;20.23;;
61840;SDS011;47773;53.174;6.614;2023-06-22T06:49:12;35.15;;;21.23;;
61840;SDS011;47773;53.174;6.614;2023-06-22T06:51:38;35.55;;;21.73;;
61840;SDS011;47773;53.174;6.614;2023-06-22T06:54:04;32.65;;;22.17;;
61840;SDS011;47773;53.174;6.614;2023-06-22T06:56:29;33.30;;;19.20;;
61840;SDS011;47773;53.174;6.614;2023-06-22T06:58:55;31.30;;;18.02;;
61840;SDS011;47773;53.174;6.614;2023-06-22T07:01:21;35.90;;;18.10;;
61840;SDS011;47773;53.174;6.614;2023-06-22T07:03:47;35.92;;;18.83;;
61840;SDS011;47773;53.174;6.614;2023-06-22T07:06:13;34.05;;;19.48;;
61840;SDS011;47773;53.174;6.614;2023-06-22T07:08:39;34.33;;;20.92;;
61840;SDS011;47773;53.174;6.614;2023-06-22T07:11:05;32.38;;;18.65;;
61840;SDS011;47773;53.174;6.614;2023-06-22T07:13:30;36.03;;;19.40;;
61840;SDS011;47773;53.174;6.614;2023-06-22T07:15:56;26.83;;;17.55;;
61840;SDS011;47773;53.174;6.614;2023-06-22T07:18:23;35.85;;;17.42;;
61840;SDS011;47773;53.174;6.614;2023-06-22T07:20:49;29.88;;;16.85;;
61840;SDS011;47773;53.174;6.614;2023-06-22T07:23:14;33.88;;;17.60;;
61840;SDS011;47773;53.174;6.614;2023-06-22T07:25:41;32.08;;;18.60;;
61840;SDS011;47773;53.174;6.614;2023-06-22T07:28:06;33.63;;;18.20;;
61840;SDS011;47773;53.174;6.614;2023-06-22T07:30:33;30.75;;;15.07;;
61840;SDS011;47773;53.174;6.614;2023-06-22T07:32:59;27.05;;;15.35;;
61840;SDS011;47773;53.174;6.614;2023-06-22T07:35:28;25.80;;;13.80;;
61840;SDS011;47773;53.174;6.614;2023-06-22T07:37:57;30.80;;;16.25;;
61840;SDS011;47773;53.174;6.614;2023-06-22T07:40:23;22.65;;;13.82;;
61840;SDS011;47773;53.174;6.614;2023-06-22T07:42:48;29.63;;;16.60;;
61840;SDS011;47773;53.174;6.614;2023-06-22T07:45:16;28.95;;;15.63;;
61840;SDS011;47773;53.174;6.614;2023-06-22T07:47:42;27.30;;;16.02;;
61840;SDS011;47773;53.174;6.614;2023-06-22T07:50:08;23.27;;;13.82;;
61840;SDS011;47773;53.174;6.614;2023-06-22T07:52:35;26.75;;;15.07;;
61840;SDS011;47773;53.174;6.614;2023-06-22T07:55:01;22.48;;;14.15;;
61840;SDS011;47773;53.174;6.614;2023-06-22T07:57:27;29.45;;;13.52;;
61840;SDS011;47773;53.174;6.614;2023-06-22T07:59:59;21.38;;;12.02;;
61840;SDS011;47773;53.174;6.614;2023-06-22T08:02:25;21.77;;;12.68;;
61840;SDS011;47773;53.174;6.614;2023-06-22T08:04:51;24.85;;;12.50;;
61840;SDS011;47773;53.174;6.614;2023-06-22T08:07:17;22.38;;;11.57;;
61840;SDS011;47773;53.174;6.614;2023-06-22T08:09:48;25.48;;;11.88;;
61840;SDS011;47773;53.174;6.614;2023-06-22T08:12:14;18.30;;;9.82;;
61840;SDS011;47773;53.174;6.614;2023-06-22T08:14:41;20.48;;;10.00;;
61840;SDS011;47773;53.174;6.614;2023-06-22T08:17:09;16.63;;;10.57;;
61840;SDS011;47773;53.174;6.614;2023-06-22T08:19:35;24.33;;;12.15;;
61840;SDS011;47773;53.174;6.614;2023-06-22T08:22:02;22.88;;;11.32;;
61840;SDS011;47773;53.174;6.614;2023-06-22T08:24:28;21.83;;;11.48;;
61840;SDS011;47773;53.174;6.614;2023-06-22T08:26:55;24.83;;;12.77;;
61840;SDS011;47773;53.174;6.614;2023-06-22T08:29:21;21.02;;;11.05;;
61840;SDS011;47773;53.174;6.614;2023-06-22T08:31:47;22.67;;;11.57;;
61840;SDS011;47773;53.174;6.614;2023-06-22T08:34:12;23.35;;;12.02;;
61840;SDS011;47773;53.174;6.614;2023-06-22T08:36:38;17.85;;;10.70;;
61840;SDS011;47773;53.174;6.614;2023-06-22T08:39:06;22.13;;;12.18;;
61840;SDS011;47773;53.174;6.614;2023-06-22T08:41:33;21.83;;;10.73;;
61840;SDS011;47773;53.174;6.614;2023-06-22T08:43:59;21.98;;;10.68;;
61840;SDS011;47773;53.174;6.614;2023-06-22T08:46:24;22.70;;;13.90;;
61840;SDS011;47773;53.174;6.614;2023-06-22T08:48:55;22.38;;;11.73;;
61840;SDS011;47773;53.174;6.614;2023-06-22T08:51:22;23.15;;;12.55;;
61840;SDS011;47773;53.174;6.614;2023-06-22T08:53:48;21.75;;;13.55;;
61840;SDS011;47773;53.174;6.614;2023-06-22T08:56:14;23.48;;;13.80;;
61840;SDS011;47773;53.174;6.614;2023-06-22T08:58:40;24.63;;;12.68;;
61840;SDS011;47773;53.174;6.614;2023-06-22T09:01:05;23.60;;;12.80;;
61840;SDS011;47773;53.174;6.614;2023-06-22T09:03:31;22.55;;;12.60;;
61840;SDS011;47773;53.174;6.614;2023-06-22T09:05:58;22.83;;;12.48;;
61840;SDS011;47773;53.174;6.614;2023-06-22T09:08:24;22.77;;;13.00;;
61840;SDS011;47773;53.174;6.614;2023-06-22T09:10:49;22.33;;;10.93;;
61840;SDS011;47773;53.174;6.614;2023-06-22T09:13:15;22.63;;;11.50;;
61840;SDS011;47773;53.174;6.614;2023-06-22T09:15:41;24.42;;;13.85;;
61840;SDS011;47773;53.174;6.614;2023-06-22T09:18:06;21.55;;;10.95;;
61840;SDS011;47773;53.174;6.614;2023-06-22T09:20:36;24.55;;;11.68;;
61840;SDS011;47773;53.174;6.614;2023-06-22T09:23:01;23.80;;;13.90;;
61840;SDS011;47773;53.174;6.614;2023-06-22T09:25:27;23.20;;;13.70;;
61840;SDS011;47773;53.174;6.614;2023-06-22T09:27:54;23.35;;;13.75;;
61840;SDS011;47773;53.174;6.614;2023-06-22T09:30:19;21.50;;;11.73;;
61840;SDS011;47773;53.174;6.614;2023-06-22T09:32:45;30.73;;;11.07;;
61840;SDS011;47773;53.174;6.614;2023-06-22T09:35:11;20.25;;;12.15;;
61840;SDS011;47773;53.174;6.614;2023-06-22T09:37:38;26.73;;;13.98;;
61840;SDS011;47773;53.174;6.614;2023-06-22T09:40:05;28.38;;;12.65;;
61840;SDS011;47773;53.174;6.614;2023-06-22T09:42:37;26.77;;;12.65;;
61840;SDS011;47773;53.174;6.614;2023-06-22T09:45:03;23.05;;;11.52;;
61840;SDS011;47773;53.174;6.614;2023-06-22T09:47:30;24.27;;;12.23;;
61840;SDS011;47773;53.174;6.614;2023-06-22T09:49:56;24.58;;;12.63;;
61840;SDS011;47773;53.174;6.614;2023-06-22T09:52:24;26.85;;;12.55;;
61840;SDS011;47773;53.174;6.614;2023-06-22T09:54:49;27.75;;;13.52;;
61840;SDS011;47773;53.174;6.614;2023-06-22T09:57:15;24.98;;;10.90;;
61840;SDS011;47773;53.174;6.614;2023-06-22T09:59:41;25.80;;;13.57;;
61840;SDS011;47773;53.174;6.614;2023-06-22T10:02:07;24.83;;;13.27;;
61840;SDS011;47773;53.174;6.614;2023-06-22T10:04:36;29.30;;;11.43;;
61840;SDS011;47773;53.174;6.614;2023-06-22T10:07:02;24.35;;;13.55;;
61840;SDS011;47773;53.174;6.614;2023-06-22T10:09:28;27.13;;;12.30;;
61840;SDS011;47773;53.174;6.614;2023-06-22T10:11:54;28.63;;;14.63;;
61840;SDS011;47773;53.174;6.614;2023-06-22T10:14:19;25.35;;;13.05;;
61840;SDS011;47773;53.174;6.614;2023-06-22T10:16:45;24.40;;;14.13;;
61840;SDS011;47773;53.174;6.614;2023-06-22T10:19:11;29.80;;;15.05;;
61840;SDS011;47773;53.174;6.614;2023-06-22T10:21:37;29.58;;;14.65;;
61840;SDS011;47773;53.174;6.614;2023-06-22T10:24:02;32.20;;;15.13;;
61840;SDS011;47773;53.174;6.614;2023-06-22T10:26:34;28.95;;;15.35;;
61840;SDS011;47773;53.174;6.614;2023-06-22T10:29:01;29.85;;;15.68;;
61840;SDS011;47773;53.174;6.614;2023-06-22T10:31:27;28.95;;;15.45;;
61840;SDS011;47773;53.174;6.614;2023-06-22T10:33:53;26.52;;;16.17;;
61840;SDS011;47773;53.174;6.614;2023-06-22T10:36:20;31.60;;;16.30;;
61840;SDS011;47773;53.174;6.614;2023-06-22T10:38:48;32.25;;;17.50;;
61840;SDS011;47773;53.174;6.614;2023-06-22T10:41:14;31.33;;;14.88;;
61840;SDS011;47773;53.174;6.614;2023-06-22T10:43:41;27.67;;;13.90;;
61840;SDS011;47773;53.174;6.614;2023-06-22T10:46:06;27.65;;;15.88;;
61840;SDS011;47773;53.174;6.614;2023-06-22T10:48:33;27.70;;;16.08;;
61840;SDS011;47773;53.174;6.614;2023-06-22T10:50:59;26.15;;;14.35;;
61840;SDS011;47773;53.174;6.614;2023-06-22T10:53:24;30.92;;;15.88;;
61840;SDS011;47773;53.174;6.614;2023-06-22T10:55:50;29.83;;;16.55;;
61840;SDS011;47773;53.174;6.614;2023-06-22T10:58:17;33.58;;;16.73;;
61840;SDS011;47773;53.174;6.614;2023-06-22T11:00:44;23.70;;;14.30;;
61840;SDS011;47773;53.174;6.614;2023-06-22T11:03:10;28.77;;;14.98;;
61840;SDS011;47773;53.174;6.614;2023-06-22T11:05:35;32.08;;;16.88;;
61840;SDS011;47773;53.174;6.614;2023-06-22T11:08:01;31.77;;;16.17;;
61840;SDS011;47773;53.174;6.614;2023-06-22T11:10:27;28.63;;;13.80;;
61840;SDS011;47773;53.174;6.614;2023-06-22T11:12:52;27.48;;;14.07;;
61840;SDS011;47773;53.174;6.614;2023-06-22T11:15:18;26.17;;;15.30;;
61840;SDS011;47773;53.174;6.614;2023-06-22T11:17:44;26.40;;;13.15;;
61840;SDS011;47773;53.174;6.614;2023-06-22T11:20:10;24.15;;;13.00;;
61840;SDS011;47773;53.174;6.614;2023-06-22T11:22:39;27.52;;;14.27;;
61840;SDS011;47773;53.174;6.614;2023-06-22T11:25:06;26.67;;;13.13;;
61840;SDS011;47773;53.174;6.614;2023-06-22T11:27:32;26.73;;;13.73;;
61840;SDS011;47773;53.174;6.614;2023-06-22T11:29:58;27.38;;;13.80;;
61840;SDS011;47773;53.174;6.614;2023-06-22T11:32:24;27.13;;;12.98;;
61840;SDS011;47773;53.174;6.614;2023-06-22T11:34:50;22.38;;;13.40;;
61840;SDS011;47773;53.174;6.614;2023-06-22T11:37:15;26.63;;;14.20;;
61840;SDS011;47773;53.174;6.614;2023-06-22T11:39:41;22.52;;;12.32;;
61840;SDS011;47773;53.174;6.614;2023-06-22T11:42:07;25.90;;;14.23;;
61840;SDS011;47773;53.174;6.614;2023-06-22T11:44:34;21.95;;;11.90;;
61840;SDS011;47773;53.174;6.614;2023-06-22T11:46:59;28.83;;;12.65;;
61840;SDS011;47773;53.174;6.614;2023-06-22T11:49:26;22.77;;;14.02;;
61840;SDS011;47773;53.174;6.614;2023-06-22T11:51:52;23.90;;;12.25;;
61840;SDS011;47773;53.174;6.614;2023-06-22T11:54:18;24.75;;;12.43;;
61840;SDS011;47773;53.174;6.614;2023-06-22T11:56:44;29.55;;;14.63;;
61840;SDS011;47773;53.174;6.614;2023-06-22T11:59:10;25.40;;;14.10;;
61840;SDS011;47773;53.174;6.614;2023-06-22T12:01:35;24.27;;;12.63;;
61840;SDS011;47773;53.174;6.614;2023-06-22T12:04:01;30.52;;;14.00;;
61840;SDS011;47773;53.174;6.614;2023-06-22T12:06:30;26.48;;;14.40;;
61840;SDS011;47773;53.174;6.614;2023-06-22T12:09:03;29.42;;;14.48;;
61840;SDS011;47773;53.174;6.614;2023-06-22T12:11:30;27.98;;;13.82;;
61840;SDS011;47773;53.174;6.614;2023-06-22T12:13:55;27.63;;;13.05;;
61840;SDS011;47773;53.174;6.614;2023-06-22T12:16:21;31.02;;;15.25;;
61840;SDS011;47773;53.174;6.614;2023-06-22T12:18:47;28.52;;;14.77;;
61840;SDS011;47773;53.174;6.614;2023-06-22T12:21:13;32.58;;;14.70;;
61840;SDS011;47773;53.174;6.614;2023-06-22T12:23:39;28.08;;;14.27;;
61840;SDS011;47773;53.174;6.614;2023-06-22T12:26:04;28.10;;;14.48;;
61840;SDS011;47773;53.174;6.614;2023-06-22T12:28:30;21.00;;;13.75;;
61840;SDS011;47773;53.174;6.614;2023-06-22T12:30:55;24.95;;;14.38;;
61840;SDS011;47773;53.174;6.614;2023-06-22T12:33:21;30.88;;;14.20;;
61840;SDS011;47773;53.174;6.614;2023-06-22T12:35:47;28.13;;;14.02;;
61840;SDS011;47773;53.174;6.614;2023-06-22T12:38:14;28.20;;;14.50;;
61840;SDS011;47773;53.174;6.614;2023-06-22T12:40:39;27.17;;;14.10;;
61840;SDS011;47773;53.174;6.614;2023-06-22T12:43:05;24.65;;;14.80;;
61840;SDS011;47773;53.174;6.614;2023-06-22T12:45:32;28.55;;;15.27;;
61840;SDS011;47773;53.174;6.614;2023-06-22T12:47:59;33.38;;;16.20;;
61840;SDS011;47773;53.174;6.614;2023-06-22T12:50:26;35.00;;;16.02;;
61840;SDS011;47773;53.174;6.614;2023-06-22T12:52:51;30.95;;;15.30;;
61840;SDS011;47773;53.174;6.614;2023-06-22T12:55:17;31.58;;;16.13;;
61840;SDS011;47773;53.174;6.614;2023-06-22T12:57:43;32.95;;;17.25;;
61840;SDS011;47773;53.174;6.614;2023-06-22T13:00:09;30.58;;;15.63;;
61840;SDS011;47773;53.174;6.614;2023-06-22T13:02:35;33.03;;;15.73;;
61840;SDS011;47773;53.174;6.614;2023-06-22T13:05:02;29.52;;;16.27;;
61840;SDS011;47773;53.174;6.614;2023-06-22T13:07:30;29.38;;;16.48;;
61840;SDS011;47773;53.174;6.614;2023-06-22T13:09:55;32.08;;;16.98;;
61840;SDS011;47773;53.174;6.614;2023-06-22T13:12:21;33.83;;;15.88;;
61840;SDS011;47773;53.174;6.614;2023-06-22T13:14:47;34.47;;;16.20;;
61840;SDS011;47773;53.174;6.614;2023-06-22T13:17:13;31.02;;;15.80;;
61840;SDS011;47773;53.174;6.614;2023-06-22T13:19:39;37.13;;;14.65;;
61840;SDS011;47773;53.174;6.614;2023-06-22T13:22:05;32.17;;;15.45;;
61840;SDS011;47773;53.174;6.614;2023-06-22T13:24:49;25.80;;;13.35;;
61840;SDS011;47773;53.174;6.614;2023-06-22T13:27:15;26.88;;;13.50;;
61840;SDS011;47773;53.174;6.614;2023-06-22T13:29:41;29.42;;;16.17;;
61840;SDS011;47773;53.174;6.614;2023-06-22T13:32:06;31.50;;;15.65;;
61840;SDS011;47773;53.174;6.614;2023-06-22T13:34:32;24.10;;;13.35;;
61840;SDS011;47773;53.174;6.614;2023-06-22T13:36:58;27.55;;;12.68;;
61840;SDS011;47773;53.174;6.614;2023-06-22T13:39:24;21.60;;;11.90;;
61840;SDS011;47773;53.174;6.614;2023-06-22T13:41:49;23.95;;;12.60;;
61840;SDS011;47773;53.174;6.614;2023-06-22T13:44:15;22.45;;;11.30;;
61840;SDS011;47773;53.174;6.614;2023-06-22T13:46:41;20.73;;;11.48;;
61840;SDS011;47773;53.174;6.614;2023-06-22T13:49:06;24.65;;;11.68;;
61840;SDS011;47773;53.174;6.614;2023-06-22T13:51:32;30.67;;;12.40;;
61840;SDS011;47773;53.174;6.614;2023-06-22T13:53:58;24.63;;;11.18;;
61840;SDS011;47773;53.174;6.614;2023-06-22T13:56:23;22.80;;;10.43;;
61840;SDS011;47773;53.174;6.614;2023-06-22T13:58:49;26.13;;;10.00;;
61840;SDS011;47773;53.174;6.614;2023-06-22T14:01:15;24.90;;;8.63;;
61840;SDS011;47773;53.174;6.614;2023-06-22T14:03:40;29.02;;;10.25;;
61840;SDS011;47773;53.174;6.614;2023-06-22T14:06:06;18.50;;;9.77;;
61840;SDS011;47773;53.174;6.614;2023-06-22T14:08:32;22.65;;;9.70;;
61840;SDS011;47773;53.174;6.614;2023-06-22T14:10:57;19.42;;;9.10;;
61840;SDS011;47773;53.174;6.614;2023-06-22T14:13:23;18.90;;;9.73;;
61840;SDS011;47773;53.174;6.614;2023-06-22T14:15:48;19.65;;;8.90;;
61840;SDS011;47773;53.174;6.614;2023-06-22T14:18:16;20.30;;;8.65;;
61840;SDS011;47773;53.174;6.614;2023-06-22T14:20:42;19.65;;;9.88;;
61840;SDS011;47773;53.174;6.614;2023-06-22T14:23:08;19.85;;;9.25;;
61840;SDS011;47773;53.174;6.614;2023-06-22T14:25:33;27.10;;;10.70;;
61840;SDS011;47773;53.174;6.614;2023-06-22T14:27:59;19.58;;;9.10;;
61840;SDS011;47773;53.174;6.614;2023-06-22T14:30:25;20.42;;;9.15;;